Time;durP1;ratioP1;P1;durP2;ratioP2;P2;SDS_P1;SDS_P2;PMS_P1;PMS_P2;Temp;Humidity;BMP_temperature;BMP_pressure;BME280_temperature;BME280_humidity;BME280_pressure;Samples;Min_cycle;Max_cycle;Signal;HPM_P1;HPM_P2
2023/03/29 00:01:16;;;;;;;5.60;2.28;;;5.40;95.00;;;;;;5037075;28;20068;-40
2023/03/29 00:03:44;;;;;;;4.95;2.47;;;5.40;95.20;;;;;;5039388;28;20388;-40
2023/03/29 00:06:14;;;;;;;12.32;2.58;;;5.40;95.00;;;;;;5035956;28;20021;-40
2023/03/29 00:08:40;;;;;;;8.55;2.88;;;5.40;95.20;;;;;;5040630;28;20022;-40
2023/03/29 00:11:06;;;;;;;7.07;2.90;;;5.40;95.10;;;;;;5032895;28;20057;-40
2023/03/29 00:13:32;;;;;;;11.57;3.25;;;5.50;95.20;;;;;;5038982;28;20079;-40
2023/03/29 00:15:57;;;;;;;6.38;2.70;;;5.40;95.40;;;;;;5037653;28;20075;-40
2023/03/29 00:18:23;;;;;;;9.65;2.65;;;5.40;95.40;;;;;;5037680;28;20021;-40
2023/03/29 00:20:55;;;;;;;7.47;2.95;;;5.40;95.40;;;;;;5037672;28;20031;-40
2023/03/29 00:23:21;;;;;;;12.48;3.38;;;5.40;95.40;;;;;;5037866;28;20286;-40
2023/03/29 00:25:47;;;;;;;9.07;2.88;;;5.40;95.60;;;;;;5039408;28;20017;-40
2023/03/29 00:28:13;;;;;;;10.35;2.80;;;5.40;95.50;;;;;;5038718;28;20045;-40
2023/03/29 00:30:39;;;;;;;6.25;2.90;;;5.40;95.40;;;;;;5039795;28;20396;-40
2023/03/29 00:33:06;;;;;;;9.10;2.88;;;5.40;95.60;;;;;;5036732;28;20120;-40
2023/03/29 00:35:31;;;;;;;9.32;3.20;;;5.50;95.40;;;;;;5038854;28;20372;-40
2023/03/29 00:37:57;;;;;;;6.95;2.58;;;5.40;95.50;;;;;;5037910;28;20115;-40
2023/03/29 00:40:23;;;;;;;12.07;2.97;;;5.50;95.60;;;;;;5038154;28;20598;-40
2023/03/29 00:42:48;;;;;;;14.85;3.35;;;5.50;95.50;;;;;;5039076;28;20025;-40
2023/03/29 00:45:24;;;;;;;7.82;3.20;;;5.50;95.70;;;;;;5036434;28;20079;-40
2023/03/29 00:47:55;;;;;;;4.72;2.55;;;5.50;95.70;;;;;;5038580;28;20060;-41
2023/03/29 00:50:38;;;;;;;8.25;3.08;;;5.40;95.50;;;;;;5041492;28;20250;-40
2023/03/29 00:53:25;;;;;;;10.77;3.10;;;5.40;95.40;;;;;;5037053;28;20025;-42
2023/03/29 00:56:05;;;;;;;7.90;2.90;;;5.40;95.80;;;;;;5040538;28;20055;-42
2023/03/29 00:58:39;;;;;;;13.32;2.95;;;5.40;95.70;;;;;;5038459;28;20013;-43
2023/03/29 01:01:09;;;;;;;5.53;2.55;;;5.40;95.60;;;;;;5036719;28;20100;-41
2023/03/29 01:03:45;;;;;;;7.45;2.88;;;5.40;95.80;;;;;;5039111;28;20300;-42
2023/03/29 01:06:13;;;;;;;7.45;2.90;;;5.50;95.90;;;;;;5038217;28;20053;-41
2023/03/29 01:08:44;;;;;;;10.80;2.97;;;5.50;95.70;;;;;;5042604;28;20448;-41
2023/03/29 01:11:21;;;;;;;6.13;3.00;;;5.40;95.70;;;;;;5040021;28;20032;-41
2023/03/29 01:13:54;;;;;;;12.57;3.33;;;5.30;95.80;;;;;;5043905;28;20040;-41
2023/03/29 01:16:20;;;;;;;8.98;3.00;;;5.30;96.00;;;;;;5039798;28;20100;-41
2023/03/29 01:18:47;;;;;;;7.07;2.67;;;5.30;96.00;;;;;;5042338;28;20063;-41
2023/03/29 01:21:39;;;;;;;8.10;2.90;;;5.30;96.10;;;;;;5039875;28;20089;-41
2023/03/29 01:24:29;;;;;;;13.95;2.65;;;5.30;96.30;;;;;;5041753;28;20028;-41
2023/03/29 01:26:59;;;;;;;6.45;3.00;;;5.30;96.30;;;;;;5041671;28;20114;-41
2023/03/29 01:29:35;;;;;;;7.18;2.80;;;5.20;96.40;;;;;;5040965;28;20080;-42
2023/03/29 01:32:13;;;;;;;6.55;2.90;;;5.20;96.50;;;;;;5041691;28;20212;-41
2023/03/29 01:35:09;;;;;;;9.82;3.03;;;5.20;96.60;;;;;;5042382;28;20025;-41
2023/03/29 01:37:51;;;;;;;11.38;2.97;;;5.20;96.60;;;;;;5041813;28;20154;-41
2023/03/29 01:40:17;;;;;;;6.95;2.88;;;5.20;96.40;;;;;;5039864;28;20018;-41
2023/03/29 01:43:04;;;;;;;12.27;3.15;;;5.20;96.50;;;;;;5042098;28;20136;-41
2023/03/29 01:45:45;;;;;;;11.13;3.15;;;5.20;96.60;;;;;;5041277;28;20020;-41
2023/03/29 01:48:22;;;;;;;6.25;2.90;;;5.20;96.50;;;;;;5038842;28;20071;-41
2023/03/29 01:51:11;;;;;;;9.45;2.75;;;5.20;96.50;;;;;;5045622;28;20120;-41
2023/03/29 01:53:40;;;;;;;13.48;3.67;;;5.20;96.70;;;;;;5036561;28;20255;-42
2023/03/29 01:56:11;;;;;;;6.35;2.95;;;5.10;96.80;;;;;;5038735;28;20108;-40
2023/03/29 01:58:41;;;;;;;10.65;3.10;;;5.10;96.80;;;;;;5036164;28;20025;-40
2023/03/29 02:01:09;;;;;;;;;;;5.20;97.10;;;;;;5036586;28;20021;-40
2023/03/29 02:03:41;;;;;;;13.38;3.38;;;5.20;96.80;;;;;;5067079;28;19915;-40
2023/03/29 02:06:09;;;;;;;14.32;3.15;;;5.10;96.90;;;;;;5038630;28;20059;-40
2023/03/29 02:08:37;;;;;;;5.43;3.10;;;5.10;96.70;;;;;;5039812;28;20017;-40
2023/03/29 02:11:03;;;;;;;4.05;2.15;;;5.10;96.80;;;;;;5063530;28;20056;-40
2023/03/29 02:13:29;;;;;;;13.80;2.78;;;5.10;96.70;;;;;;5040552;28;20068;-39
2023/03/29 02:15:58;;;;;;;4.57;2.35;;;5.10;96.50;;;;;;5040057;28;20048;-40
2023/03/29 02:18:24;;;;;;;8.10;2.88;;;5.10;96.60;;;;;;5038897;28;20375;-39
2023/03/29 02:20:52;;;;;;;9.77;3.28;;;5.10;96.70;;;;;;5039838;28;20024;-40
2023/03/29 02:23:22;;;;;;;15.13;3.65;;;5.10;96.60;;;;;;5038908;28;20087;-39
2023/03/29 02:25:52;;;;;;;9.38;2.90;;;5.10;96.80;;;;;;5039749;28;20021;-40
2023/03/29 02:28:18;;;;;;;11.98;2.67;;;5.10;96.60;;;;;;5038563;28;20045;-40
2023/03/29 02:31:03;;;;;;;6.18;2.63;;;5.00;96.60;;;;;;5040849;28;20406;-40
2023/03/29 02:33:51;;;;;;;8.10;3.10;;;5.10;96.70;;;;;;5037132;28;20482;-40
2023/03/29 02:36:23;;;;;;;7.68;2.58;;;5.10;96.80;;;;;;5023646;28;20068;-40
2023/03/29 02:38:51;;;;;;;9.38;2.90;;;5.00;96.60;;;;;;5030081;28;20025;-40
2023/03/29 02:41:17;;;;;;;12.60;3.35;;;5.00;96.70;;;;;;5033660;28;20029;-40
2023/03/29 02:43:45;;;;;;;9.68;3.28;;;5.00;96.70;;;;;;5034655;28;20013;-41
2023/03/29 02:46:12;;;;;;;8.05;2.58;;;4.90;96.80;;;;;;5039832;28;20037;-40
2023/03/29 02:48:38;;;;;;;10.07;2.67;;;5.00;96.80;;;;;;5037960;28;20048;-40
2023/03/29 02:51:13;;;;;;;6.50;2.90;;;4.90;96.70;;;;;;5039462;28;20411;-40
2023/03/29 02:53:44;;;;;;;5.60;2.50;;;4.90;96.90;;;;;;5042607;28;20115;-40
2023/03/29 02:56:09;;;;;;;6.85;2.50;;;4.90;97.10;;;;;;5040597;28;20018;-40
2023/03/29 02:58:35;;;;;;;9.80;3.30;;;4.90;96.50;;;;;;5043305;28;20320;-40
2023/03/29 03:01:04;;;;;;;7.18;2.42;;;4.90;96.60;;;;;;5047478;28;20028;-40
2023/03/29 03:03:30;;;;;;;9.10;2.60;;;5.00;96.60;;;;;;5042211;28;20059;-40
2023/03/29 03:05:56;;;;;;;3.40;2.25;;;4.90;96.60;;;;;;5042633;28;20359;-41
2023/03/29 03:08:21;;;;;;;6.13;2.72;;;5.00;96.80;;;;;;5041333;28;20017;-41
2023/03/29 03:10:47;;;;;;;11.23;2.78;;;4.90;96.80;;;;;;5047685;28;20025;-41
2023/03/29 03:13:12;;;;;;;7.15;2.55;;;4.90;97.00;;;;;;5040478;28;20049;-41
2023/03/29 03:15:41;;;;;;;10.80;3.70;;;4.90;97.00;;;;;;5043213;28;20028;-41
2023/03/29 03:18:08;;;;;;;9.55;2.35;;;4.90;97.30;;;;;;5042036;28;20040;-41
2023/03/29 03:20:34;;;;;;;7.20;2.58;;;4.90;97.30;;;;;;5044507;28;20032;-41
2023/03/29 03:23:02;;;;;;;9.23;2.75;;;4.90;97.50;;;;;;5041744;28;20492;-41
2023/03/29 03:25:28;;;;;;;9.07;2.80;;;4.90;97.30;;;;;;5042305;28;20018;-41
2023/03/29 03:27:54;;;;;;;6.70;2.72;;;4.90;97.70;;;;;;5041962;28;20328;-41
2023/03/29 03:30:19;;;;;;;7.80;2.70;;;4.90;97.70;;;;;;5040249;28;20108;-40
2023/03/29 03:32:45;;;;;;;5.40;2.83;;;5.00;97.70;;;;;;5043012;28;20108;-40
2023/03/29 03:35:11;;;;;;;3.92;2.42;;;5.00;98.00;;;;;;5039794;28;20025;-41
2023/03/29 03:37:37;;;;;;;6.93;2.95;;;5.00;98.10;;;;;;5042668;28;20032;-40
2023/03/29 03:40:05;;;;;;;7.03;2.67;;;5.00;98.60;;;;;;5038007;28;20033;-40
2023/03/29 03:42:31;;;;;;;5.82;3.38;;;5.00;98.60;;;;;;5042121;28;20048;-40
2023/03/29 03:44:56;;;;;;;10.50;3.13;;;5.00;98.70;;;;;;5041911;28;20017;-40
2023/03/29 03:47:22;;;;;;;10.05;3.33;;;5.00;99.00;;;;;;5040531;28;20192;-41
2023/03/29 03:49:48;;;;;;;9.93;3.38;;;5.00;99.60;;;;;;5043149;28;20021;-40
2023/03/29 03:52:13;;;;;;;5.07;2.88;;;5.10;99.50;;;;;;5039862;28;20017;-40
2023/03/29 03:54:39;;;;;;;12.90;3.60;;;5.10;99.80;;;;;;5041229;28;20382;-40
2023/03/29 03:57:05;;;;;;;9.60;3.00;;;5.10;99.90;;;;;;5039887;28;20056;-40
2023/03/29 03:59:30;;;;;;;5.15;2.78;;;5.10;99.90;;;;;;5038569;28;20045;-40
2023/03/29 04:01:56;;;;;;;6.85;3.13;;;5.10;99.90;;;;;;5041513;28;20509;-40
2023/03/29 04:04:23;;;;;;;7.38;3.25;;;5.10;99.90;;;;;;5040854;28;20510;-40
2023/03/29 04:06:49;;;;;;;9.45;3.40;;;5.10;99.90;;;;;;5040950;28;20501;-40
2023/03/29 04:09:14;;;;;;;7.63;3.40;;;5.10;99.90;;;;;;5042443;28;20017;-41
2023/03/29 04:11:40;;;;;;;4.60;3.10;;;5.10;99.90;;;;;;5040053;28;20253;-41
2023/03/29 04:14:05;;;;;;;10.68;3.63;;;5.10;99.90;;;;;;5038859;28;20025;-41
2023/03/29 04:16:31;;;;;;;10.55;3.47;;;5.10;99.90;;;;;;5041802;28;20021;-41
2023/03/29 04:18:56;;;;;;;8.27;3.38;;;5.00;99.90;;;;;;5039944;28;20028;-40
2023/03/29 04:21:22;;;;;;;12.77;4.07;;;5.00;99.90;;;;;;5040730;28;20024;-40
2023/03/29 04:23:47;;;;;;;12.55;5.05;;;5.00;99.90;;;;;;5042268;28;20021;-40
2023/03/29 04:26:14;;;;;;;7.47;3.72;;;5.00;99.90;;;;;;5039118;28;20024;-40
2023/03/29 04:28:40;;;;;;;9.93;3.28;;;5.00;99.90;;;;;;5042197;28;20295;-40
2023/03/29 04:31:10;;;;;;;8.77;3.30;;;5.00;99.90;;;;;;5041180;28;20064;-41
2023/03/29 04:33:36;;;;;;;10.50;3.70;;;5.00;99.90;;;;;;5042499;28;20043;-43
2023/03/29 04:36:02;;;;;;;12.40;4.10;;;5.00;99.90;;;;;;5045123;28;20526;-42
2023/03/29 04:38:28;;;;;;;8.73;4.10;;;5.00;99.90;;;;;;5047593;28;20099;-42
2023/03/29 04:40:54;;;;;;;9.10;3.85;;;4.90;99.90;;;;;;5049788;28;20017;-42
2023/03/29 04:43:21;;;;;;;7.40;3.30;;;4.90;99.90;;;;;;5051754;28;20048;-42
2023/03/29 04:45:47;;;;;;;7.88;3.78;;;4.90;99.90;;;;;;5051941;28;20025;-41
2023/03/29 04:48:12;;;;;;;8.85;3.70;;;4.90;99.90;;;;;;5051677;28;20033;-41
2023/03/29 04:50:38;;;;;;;11.02;3.85;;;4.90;99.90;;;;;;5052370;28;20108;-41
2023/03/29 04:53:04;;;;;;;7.65;3.20;;;4.90;99.90;;;;;;5051844;28;20090;-42
2023/03/29 04:55:30;;;;;;;11.13;4.40;;;4.80;99.90;;;;;;5051542;28;20516;-42
2023/03/29 04:57:56;;;;;;;9.63;3.90;;;4.80;99.90;;;;;;5051710;28;20029;-42
2023/03/29 05:00:25;;;;;;;6.65;4.22;;;4.80;99.90;;;;;;5051551;28;20068;-41
2023/03/29 05:02:52;;;;;;;8.35;4.20;;;4.80;99.90;;;;;;5051588;28;20059;-41
2023/03/29 05:05:17;;;;;;;7.10;4.07;;;4.80;99.90;;;;;;5051197;28;20522;-41
2023/03/29 05:07:44;;;;;;;10.25;4.72;;;4.80;99.90;;;;;;5051192;28;20017;-42
2023/03/29 05:10:09;;;;;;;10.10;4.75;;;4.80;99.90;;;;;;5051476;28;20060;-41
2023/03/29 05:12:35;;;;;;;10.30;5.05;;;4.80;99.90;;;;;;5051386;28;20474;-41
2023/03/29 05:15:01;;;;;;;9.38;4.88;;;4.80;99.90;;;;;;5051704;28;20205;-42
2023/03/29 05:17:27;;;;;;;8.82;4.82;;;4.80;99.90;;;;;;5049673;28;20056;-41
2023/03/29 05:19:53;;;;;;;10.50;5.70;;;4.80;99.90;;;;;;5051648;28;20067;-42
2023/03/29 05:22:20;;;;;;;10.70;6.07;;;4.80;99.90;;;;;;5051233;28;20474;-41
2023/03/29 05:24:46;;;;;;;9.80;5.35;;;4.90;99.90;;;;;;5050828;28;20078;-41
2023/03/29 05:27:12;;;;;;;8.88;5.45;;;4.80;99.90;;;;;;5049941;28;20125;-41
2023/03/29 05:29:37;;;;;;;10.02;5.88;;;5.00;99.90;;;;;;5066088;28;20063;-41
2023/03/29 05:32:03;;;;;;;8.13;5.60;;;5.00;99.90;;;;;;5049985;28;20534;-40
2023/03/29 05:34:30;;;;;;;10.27;6.22;;;5.00;99.90;;;;;;5049470;28;20171;-40
2023/03/29 05:36:57;;;;;;;12.18;5.90;;;5.10;99.90;;;;;;5060847;28;20025;-41
2023/03/29 05:39:23;;;;;;;13.88;6.80;;;5.10;99.90;;;;;;5056884;28;20394;-40
2023/03/29 05:41:49;;;;;;;10.27;6.63;;;5.10;99.90;;;;;;5076997;28;20029;-40
2023/03/29 05:44:15;;;;;;;12.48;6.72;;;5.10;99.90;;;;;;5043590;28;20017;-40
2023/03/29 05:46:41;;;;;;;16.45;7.28;;;5.10;99.90;;;;;;5046036;28;20044;-40
2023/03/29 05:49:07;;;;;;;10.88;6.60;;;5.10;99.90;;;;;;5046172;28;20017;-40
2023/03/29 05:51:34;;;;;;;10.55;6.97;;;5.20;99.90;;;;;;5047028;28;20249;-40
2023/03/29 05:54:00;;;;;;;13.88;6.88;;;5.20;99.90;;;;;;5043608;28;20027;-41
2023/03/29 05:56:26;;;;;;;15.70;6.95;;;5.20;99.90;;;;;;5043506;28;20336;-40
2023/03/29 05:58:58;;;;;;;12.90;6.95;;;5.30;99.90;;;;;;5044597;28;20426;-40
2023/03/29 06:01:24;;;;;;;11.15;6.97;;;5.40;99.90;;;;;;5043304;28;20087;-40
2023/03/29 06:03:50;;;;;;;12.98;7.55;;;5.40;99.90;;;;;;5044364;28;20195;-40
2023/03/29 06:06:16;;;;;;;10.55;7.03;;;5.50;99.90;;;;;;5041583;28;20025;-40
2023/03/29 06:08:43;;;;;;;13.40;7.80;;;5.50;99.90;;;;;;5076266;28;20364;-40
2023/03/29 06:11:10;;;;;;;19.60;8.27;;;5.50;99.90;;;;;;5039422;28;20039;-40
2023/03/29 06:13:37;;;;;;;14.90;8.38;;;5.40;99.90;;;;;;5042878;28;20129;-39
2023/03/29 06:16:04;;;;;;;11.30;6.45;;;5.40;99.90;;;;;;5046939;28;20448;-40
2023/03/29 06:18:31;;;;;;;12.82;6.40;;;5.50;99.90;;;;;;5048343;28;20033;-40
2023/03/29 06:20:56;;;;;;;10.63;6.95;;;5.50;99.90;;;;;;5049717;28;20238;-40
2023/03/29 06:23:22;;;;;;;13.25;7.00;;;5.50;99.90;;;;;;5050104;28;20127;-40
2023/03/29 06:25:50;;;;;;;10.75;6.97;;;5.60;99.90;;;;;;5048283;28;20373;-41
2023/03/29 06:28:16;;;;;;;10.80;6.45;;;5.70;99.90;;;;;;5049669;28;20016;-42
2023/03/29 06:30:43;;;;;;;10.40;6.80;;;5.70;99.90;;;;;;5049636;28;20029;-41
2023/03/29 06:33:09;;;;;;;11.20;5.85;;;5.60;99.90;;;;;;5046214;28;20092;-41
2023/03/29 06:35:35;;;;;;;12.07;6.28;;;5.70;99.90;;;;;;5045262;28;20704;-40
2023/03/29 06:38:02;;;;;;;9.65;5.68;;;5.60;99.90;;;;;;5049837;28;20078;-41
2023/03/29 06:40:27;;;;;;;7.80;5.60;;;5.60;99.90;;;;;;5050170;28;20689;-42
2023/03/29 06:42:58;;;;;;;9.38;6.05;;;5.60;99.90;;;;;;5049727;28;20036;-41
2023/03/29 06:45:25;;;;;;;11.05;6.22;;;5.70;99.90;;;;;;5049704;28;20017;-44
2023/03/29 06:47:50;;;;;;;9.10;5.88;;;5.70;99.90;;;;;;5049372;28;20029;-41
2023/03/29 06:50:16;;;;;;;9.18;6.13;;;5.80;99.90;;;;;;5049870;28;20393;-41
2023/03/29 06:52:43;;;;;;;7.05;5.55;;;6.00;99.90;;;;;;5047932;28;20037;-41
2023/03/29 06:55:10;;;;;;;10.40;6.13;;;6.10;99.90;;;;;;5049598;28;20502;-41
2023/03/29 06:57:37;;;;;;;9.35;5.97;;;6.10;99.90;;;;;;5049616;28;20040;-41
2023/03/29 07:00:14;;;;;;;11.23;6.35;;;6.10;99.90;;;;;;5049762;28;20024;-41
2023/03/29 07:02:40;;;;;;;11.52;7.05;;;6.20;99.90;;;;;;5049408;28;20104;-41
2023/03/29 07:05:10;;;;;;;12.77;6.25;;;6.20;99.90;;;;;;5050106;28;20021;-41
2023/03/29 07:07:52;;;;;;;12.65;6.15;;;6.20;99.90;;;;;;5048367;28;20112;-41
2023/03/29 07:10:38;;;;;;;11.73;7.25;;;6.20;99.90;;;;;;5049618;28;20107;-42
2023/03/29 07:13:05;;;;;;;8.07;5.97;;;6.40;99.90;;;;;;5049135;28;20053;-41
2023/03/29 07:15:31;;;;;;;9.02;6.30;;;6.50;99.90;;;;;;5048971;28;20025;-41
2023/03/29 07:17:56;;;;;;;9.82;5.93;;;6.60;99.90;;;;;;5049141;28;20108;-41
2023/03/29 07:20:22;;;;;;;10.63;6.00;;;6.70;99.90;;;;;;5049449;28;20410;-41
2023/03/29 07:22:50;;;;;;;13.85;6.55;;;6.60;99.90;;;;;;5049166;28;20425;-41
2023/03/29 07:25:17;;;;;;;9.32;6.20;;;6.50;99.90;;;;;;5049058;28;20024;-41
2023/03/29 07:27:43;;;;;;;11.43;6.20;;;6.40;99.90;;;;;;5047331;28;20017;-41
2023/03/29 07:30:11;;;;;;;8.73;6.53;;;6.50;99.90;;;;;;5048986;28;20025;-40
2023/03/29 07:32:38;;;;;;;11.63;6.63;;;6.50;99.90;;;;;;5048637;28;20079;-40
2023/03/29 07:35:04;;;;;;;10.65;6.07;;;6.50;99.90;;;;;;5048945;28;20429;-40
2023/03/29 07:37:31;;;;;;;11.52;6.78;;;6.70;99.90;;;;;;5045449;28;20080;-40
2023/03/29 07:39:58;;;;;;;13.27;6.63;;;6.80;99.90;;;;;;5043247;28;20470;-40
2023/03/29 07:42:24;;;;;;;14.98;6.88;;;6.90;99.90;;;;;;5038444;28;20064;-40
2023/03/29 07:44:50;;;;;;;17.23;6.43;;;7.00;99.90;;;;;;5041699;28;20502;-40
2023/03/29 07:47:15;;;;;;;16.80;7.53;;;7.30;99.90;;;;;;5069874;28;20369;-40
2023/03/29 07:49:41;;;;;;;11.95;6.25;;;7.40;99.90;;;;;;5041843;28;20065;-40
2023/03/29 07:52:07;;;;;;;11.88;6.15;;;7.40;99.90;;;;;;5044115;28;20020;-40
2023/03/29 07:54:33;;;;;;;9.45;6.53;;;7.50;99.90;;;;;;5041386;28;20022;-41
2023/03/29 07:56:59;;;;;;;9.07;6.32;;;7.60;99.90;;;;;;5042173;28;20028;-40
2023/03/29 07:59:26;;;;;;;11.50;6.10;;;7.50;99.90;;;;;;5039818;28;20013;-42
2023/03/29 08:01:51;;;;;;;11.00;5.90;;;7.90;99.90;;;;;;5040519;28;20010;-41
2023/03/29 08:04:17;;;;;;;9.57;6.50;;;8.10;99.90;;;;;;5044774;28;20021;-41
2023/03/29 08:06:42;;;;;;;9.02;6.38;;;8.30;99.90;;;;;;5073265;28;20100;-41
2023/03/29 08:09:08;;;;;;;10.23;6.10;;;8.50;99.90;;;;;;5042239;28;20048;-40
2023/03/29 08:11:34;;;;;;;10.88;6.07;;;8.50;99.90;;;;;;5040609;28;20305;-41
2023/03/29 08:13:59;;;;;;;12.60;6.18;;;8.50;99.90;;;;;;5042771;28;20028;-40
2023/03/29 08:16:25;;;;;;;12.73;6.57;;;8.30;99.90;;;;;;5038637;28;20013;-40
2023/03/29 08:18:51;;;;;;;7.15;5.40;;;8.40;99.90;;;;;;5042494;28;20021;-40
2023/03/29 08:21:16;;;;;;;9.75;6.28;;;8.60;99.90;;;;;;5040864;28;20029;-40
2023/03/29 08:23:42;;;;;;;11.30;6.63;;;8.60;99.90;;;;;;5041623;28;20036;-40
2023/03/29 08:26:08;;;;;;;9.30;6.05;;;8.60;99.90;;;;;;5042738;28;20063;-40
2023/03/29 08:28:33;;;;;;;10.38;6.38;;;8.90;99.90;;;;;;5036553;28;20032;-40
2023/03/29 08:30:59;;;;;;;9.20;5.88;;;9.00;99.90;;;;;;5062831;28;20063;-40
2023/03/29 08:33:25;;;;;;;9.27;6.22;;;9.10;99.90;;;;;;5032255;28;20029;-40
2023/03/29 08:35:51;;;;;;;9.15;5.72;;;8.90;99.90;;;;;;5046812;28;20052;-40
2023/03/29 08:38:17;;;;;;;8.60;5.25;;;8.90;99.90;;;;;;5040856;28;20431;-40
2023/03/29 08:40:47;;;;;;;6.93;5.50;;;9.00;99.90;;;;;;5040367;28;20029;-40
2023/03/29 08:43:30;;;;;;;8.65;5.75;;;9.10;99.90;;;;;;5040879;28;20584;-41
2023/03/29 08:46:17;;;;;;;8.43;6.22;;;9.10;99.90;;;;;;5042902;28;20086;-40
2023/03/29 08:48:53;;;;;;;7.93;5.85;;;9.10;99.90;;;;;;5041768;28;21098;-40
2023/03/29 08:51:26;;;;;;;8.55;5.97;;;9.20;99.90;;;;;;5042070;28;20028;-40
2023/03/29 08:53:58;;;;;;;9.13;5.30;;;9.60;99.90;;;;;;5042210;28;20092;-40
2023/03/29 08:56:27;;;;;;;11.48;5.82;;;9.70;99.90;;;;;;5039246;28;20079;-41
2023/03/29 08:58:54;;;;;;;9.57;5.82;;;9.90;99.90;;;;;;5042446;28;20096;-40
2023/03/29 09:01:29;;;;;;;10.57;5.88;;;9.60;99.90;;;;;;5039634;28;20510;-40
2023/03/29 09:04:17;;;;;;;9.85;5.95;;;9.50;99.90;;;;;;5043470;28;20029;-41
2023/03/29 09:06:43;;;;;;;7.32;5.60;;;9.90;99.90;;;;;;5046601;28;20465;-41
2023/03/29 09:09:16;;;;;;;9.85;5.65;;;10.20;99.90;;;;;;5041295;28;20052;-41
2023/03/29 09:12:35;;;;;;;9.77;5.80;;;10.40;99.90;;;;;;5044941;28;20475;-41
2023/03/29 09:15:14;;;;;;;14.18;5.45;;;10.20;99.90;;;;;;5023797;28;20029;-40
2023/03/29 09:17:51;;;;;;;9.98;5.20;;;10.40;99.90;;;;;;5040522;28;20041;-39
2023/03/29 09:20:36;;;;;;;7.65;5.18;;;10.50;99.90;;;;;;5056771;28;20020;-42
2023/03/29 09:23:33;;;;;;;6.30;4.38;;;10.50;99.90;;;;;;5042762;28;20094;-41
2023/03/29 09:26:02;;;;;;;7.93;5.30;;;10.40;99.90;;;;;;5041481;28;20013;-41
2023/03/29 09:28:39;;;;;;;29.05;15.95;;;10.30;99.90;;;;;;5041944;28;20428;-42
2023/03/29 09:31:13;;;;;;;9.27;5.35;;;10.20;99.90;;;;;;5045742;28;20025;-41
2023/03/29 09:33:58;;;;;;;9.75;4.43;;;10.20;99.90;;;;;;5045667;28;20076;-41
2023/03/29 09:36:43;;;;;;;7.18;4.70;;;10.50;99.90;;;;;;5049377;28;20108;-43
2023/03/29 09:39:13;;;;;;;10.82;4.88;;;10.80;99.90;;;;;;5046486;28;20128;-42
2023/03/29 09:41:45;;;;;;;7.80;5.07;;;10.70;99.90;;;;;;5043833;28;20505;-40
2023/03/29 09:44:15;;;;;;;14.48;5.53;;;10.70;99.90;;;;;;5056349;28;20025;-40
2023/03/29 09:46:44;;;;;;;7.95;4.93;;;10.80;99.80;;;;;;5074356;28;20090;-40
2023/03/29 09:49:38;;;;;;;9.52;4.70;;;10.90;99.60;;;;;;5042166;28;20025;-40
2023/03/29 09:52:11;;;;;;;7.90;4.80;;;11.40;99.90;;;;;;5039768;28;20059;-38
2023/03/29 09:54:37;;;;;;;6.70;4.43;;;12.30;98.10;;;;;;5042882;28;20098;-39
2023/03/29 09:57:03;;;;;;;9.65;4.85;;;12.60;96.00;;;;;;5047145;28;20502;-40
2023/03/29 09:59:29;;;;;;;7.35;3.97;;;12.80;96.10;;;;;;5040240;28;20025;-40
2023/03/29 10:02:08;;;;;;;6.00;4.13;;;13.20;94.70;;;;;;5044385;28;20041;-40
2023/03/29 10:04:34;;;;;;;9.95;4.05;;;13.20;93.60;;;;;;5048656;28;20382;-39
2023/03/29 10:07:00;;;;;;;8.25;4.60;;;13.30;94.10;;;;;;5044371;28;20108;-39
2023/03/29 10:09:29;;;;;;;7.65;4.43;;;13.10;94.30;;;;;;5046277;28;20474;-41
2023/03/29 10:12:02;;;;;;;9.25;4.82;;;13.30;93.30;;;;;;5043993;28;20217;-40
2023/03/29 10:14:42;;;;;;;6.45;4.03;;;12.90;92.70;;;;;;5041559;28;20025;-40
2023/03/29 10:17:23;;;;;;;7.18;4.72;;;13.10;93.40;;;;;;5043815;28;20198;-40
2023/03/29 10:20:04;;;;;;;12.07;5.00;;;13.30;92.90;;;;;;5050008;28;20021;-39
2023/03/29 10:22:36;;;;;;;9.88;5.07;;;12.60;93.60;;;;;;5041411;28;20341;-40
2023/03/29 10:25:02;;;;;;;7.72;4.45;;;12.70;93.50;;;;;;5044971;28;20032;-40
2023/03/29 10:27:30;;;;;;;7.05;4.47;;;12.70;94.60;;;;;;5041109;28;20021;-42
2023/03/29 10:29:59;;;;;;;9.40;4.07;;;13.00;93.40;;;;;;5044031;28;20033;-41
2023/03/29 10:32:27;;;;;;;5.72;3.90;;;13.60;93.60;;;;;;5040014;28;20031;-41
2023/03/29 10:34:54;;;;;;;7.40;4.47;;;14.60;92.50;;;;;;5046475;28;20052;-39
2023/03/29 10:37:21;;;;;;;7.93;4.35;;;14.90;89.80;;;;;;5041782;28;20027;-40
2023/03/29 10:39:48;;;;;;;7.85;4.82;;;15.40;88.20;;;;;;5054185;28;20034;-40
2023/03/29 10:42:17;;;;;;;5.57;3.65;;;16.10;87.80;;;;;;5042691;28;20454;-40
2023/03/29 10:44:54;;;;;;;5.10;3.40;;;17.30;84.60;;;;;;5042650;28;20100;-39
2023/03/29 10:47:21;;;;;;;7.38;3.78;;;18.00;79.60;;;;;;5041784;28;20048;-42
2023/03/29 10:49:53;;;;;;;7.82;4.43;;;17.00;77.40;;;;;;5053153;28;20116;-39
2023/03/29 10:52:20;;;;;;;6.70;3.67;;;16.70;78.20;;;;;;5041135;28;20025;-41
2023/03/29 10:54:48;;;;;;;5.55;4.05;;;16.40;79.60;;;;;;5040248;28;20029;-40
2023/03/29 10:57:43;;;;;;;10.75;4.80;;;16.00;79.50;;;;;;5040416;28;20027;-40
2023/03/29 11:00:17;;;;;;;10.60;5.18;;;15.20;81.30;;;;;;5003482;28;20456;-40
2023/03/29 11:02:46;;;;;;;7.13;4.72;;;13.90;84.50;;;;;;5042402;28;20026;-39
2023/03/29 11:05:19;;;;;;;8.50;4.55;;;13.40;87.60;;;;;;5046833;28;20071;-41
2023/03/29 11:08:18;;;;;;;8.57;4.43;;;12.70;90.80;;;;;;5054141;28;20147;-41
2023/03/29 11:10:47;;;;;;;7.97;5.18;;;12.50;91.90;;;;;;5040594;28;20044;-40
2023/03/29 11:13:15;;;;;;;8.90;4.93;;;12.50;91.90;;;;;;5036025;28;20022;-41
2023/03/29 11:16:00;;;;;;;8.73;4.50;;;12.40;92.20;;;;;;5031037;28;20026;-40
2023/03/29 11:18:48;;;;;;;11.57;4.55;;;12.40;92.60;;;;;;5030907;28;20025;-41
2023/03/29 11:21:32;;;;;;;9.30;4.80;;;12.60;93.30;;;;;;5034736;28;20032;-40
2023/03/29 11:24:03;;;;;;;6.85;4.57;;;12.60;93.20;;;;;;5039065;28;20095;-40
2023/03/29 11:27:00;;;;;;;9.00;4.78;;;12.50;93.20;;;;;;5039881;28;20010;-41
2023/03/29 11:30:01;;;;;;;6.10;4.40;;;13.00;93.00;;;;;;5040625;28;20032;-40
2023/03/29 11:32:45;;;;;;;7.22;4.72;;;13.40;92.60;;;;;;5042126;28;20395;-40
2023/03/29 11:35:11;;;;;;;11.05;6.63;;;14.00;91.10;;;;;;5042313;28;20059;-41
2023/03/29 11:37:55;;;;;;;8.65;5.32;;;14.70;90.50;;;;;;5041027;28;20049;-40
2023/03/29 11:40:33;;;;;;;9.93;5.50;;;14.90;90.00;;;;;;5040863;28;20028;-41
2023/03/29 11:43:01;;;;;;;8.57;4.32;;;14.80;89.00;;;;;;5044695;28;20017;-40
2023/03/29 11:45:33;;;;;;;8.80;4.78;;;13.70;90.00;;;;;;5045491;28;20020;-40
2023/03/29 11:48:03;;;;;;;7.40;4.40;;;13.40;91.20;;;;;;5043408;28;20086;-42
2023/03/29 11:50:42;;;;;;;7.73;4.90;;;13.30;92.20;;;;;;5040077;28;20576;-40
2023/03/29 11:53:16;;;;;;;8.43;4.32;;;13.10;92.80;;;;;;5047088;28;20278;-41
2023/03/29 11:55:43;;;;;;;11.55;4.60;;;13.30;94.00;;;;;;5048704;28;20021;-41
2023/03/29 11:58:18;;;;;;;7.72;4.55;;;13.90;92.70;;;;;;5045765;28;20389;-40
2023/03/29 12:00:58;;;;;;;7.03;4.40;;;14.70;91.60;;;;;;5048121;28;20020;-42
2023/03/29 12:03:43;;;;;;;6.85;3.97;;;15.20;91.00;;;;;;5048528;28;20082;-40
2023/03/29 12:06:28;;;;;;;7.80;3.95;;;15.50;90.50;;;;;;5048530;28;20028;-41
2023/03/29 12:09:02;;;;;;;6.53;3.90;;;16.10;91.40;;;;;;5047938;28;20260;-40
2023/03/29 12:11:38;;;;;;;4.97;4.05;;;16.40;88.90;;;;;;5046776;28;20164;-39
2023/03/29 12:14:12;;;;;;;7.75;4.18;;;16.10;87.00;;;;;;5048191;28;20021;-41
2023/03/29 12:16:44;;;;;;;5.65;4.72;;;15.60;87.10;;;;;;5037780;28;20025;-39
2023/03/29 12:19:33;;;;;;;11.70;4.93;;;14.40;90.90;;;;;;5041602;28;20491;-40
2023/03/29 12:22:00;;;;;;;4.97;4.13;;;14.10;91.80;;;;;;5044770;28;20029;-41
2023/03/29 12:24:30;;;;;;;7.63;4.57;;;13.70;92.40;;;;;;5038659;28;20034;-39
2023/03/29 12:27:10;;;;;;;6.20;4.07;;;14.00;92.90;;;;;;5038047;28;20392;-40
2023/03/29 12:29:57;;;;;;;7.35;4.50;;;13.60;93.20;;;;;;5038327;28;20017;-40
2023/03/29 12:32:38;;;;;;;5.13;3.63;;;13.40;93.50;;;;;;5039916;28;20033;-40
2023/03/29 12:35:18;;;;;;;8.07;4.30;;;13.60;94.00;;;;;;5038503;28;20033;-41
2023/03/29 12:37:58;;;;;;;8.63;5.03;;;13.90;94.20;;;;;;5047978;28;20028;-40
2023/03/29 12:40:26;;;;;;;6.07;4.05;;;13.90;93.30;;;;;;5047952;28;20025;-40
2023/03/29 12:43:01;;;;;;;6.10;4.85;;;13.90;93.30;;;;;;5040728;28;20570;-40
2023/03/29 12:45:36;;;;;;;10.65;4.80;;;13.80;94.10;;;;;;5040533;28;20339;-40
2023/03/29 12:48:02;;;;;;;7.97;4.85;;;13.40;94.20;;;;;;5040163;28;20045;-40
2023/03/29 12:50:44;;;;;;;6.55;4.32;;;13.20;95.10;;;;;;5044302;28;20024;-39
2023/03/29 12:53:20;;;;;;;10.63;5.95;;;13.10;95.90;;;;;;5043878;28;20031;-40
2023/03/29 12:56:07;;;;;;;6.50;5.20;;;13.00;95.30;;;;;;5037898;28;20529;-40
2023/03/29 12:58:38;;;;;;;7.63;4.57;;;12.90;96.30;;;;;;5042572;28;20383;-40
2023/03/29 13:01:10;;;;;;;6.18;4.60;;;13.00;96.90;;;;;;5047395;28;20182;-39
2023/03/29 13:03:38;;;;;;;7.43;4.70;;;12.80;96.90;;;;;;5051683;28;20052;-40
2023/03/29 13:06:07;;;;;;;5.47;4.20;;;13.00;97.80;;;;;;5051451;28;20547;-40
2023/03/29 13:08:55;;;;;;;5.90;4.20;;;13.20;97.10;;;;;;5051521;28;20023;-39